Time;durP1;ratioP1;P1;durP2;ratioP2;P2;SDS_P1;SDS_P2;PMS_P1;PMS_P2;Temp;Humidity;BMP_temperature;BMP_pressure;BME280_temperature;BME280_humidity;BME280_pressure;Samples;Min_cycle;Max_cycle;Signal;HPM_P1;HPM_P2
2022/06/11 00:02:30;;;;;;;2.03;1.45;;;23.20;39.30;;;;;;6200033;28;20026;-68
2022/06/11 00:05:31;;;;;;;1.95;0.82;;;23.10;39.20;;;;;;6182972;28;20085;-69
2022/06/11 00:08:33;;;;;;;5.35;1.13;;;23.10;39.20;;;;;;6196299;28;20356;-69
2022/06/11 00:11:35;;;;;;;1.73;1.20;;;23.10;39.30;;;;;;6205591;28;20026;-69
2022/06/11 00:14:37;;;;;;;3.53;1.30;;;23.00;39.20;;;;;;6223233;28;20092;-69
2022/06/11 00:17:38;;;;;;;2.38;1.30;;;23.00;39.20;;;;;;6206218;28;20038;-69
2022/06/11 00:20:39;;;;;;;2.95;1.02;;;23.00;39.10;;;;;;6205885;28;20040;-69
2022/06/11 00:23:42;;;;;;;3.55;1.10;;;23.00;39.20;;;;;;6170082;28;20455;-68
2022/06/11 00:26:45;;;;;;;2.75;0.85;;;23.00;39.30;;;;;;6168365;28;20026;-68
2022/06/11 00:29:48;;;;;;;6.72;1.48;;;22.90;39.40;;;;;;6171169;28;20030;-69
2022/06/11 00:32:49;;;;;;;2.55;1.27;;;23.00;39.50;;;;;;6187435;28;20430;-69
2022/06/11 00:35:51;;;;;;;5.40;1.00;;;22.90;39.70;;;;;;6171100;28;20042;-69
2022/06/11 00:38:53;;;;;;;2.65;1.10;;;22.90;39.80;;;;;;6186482;28;20026;-69
2022/06/11 00:42:01;;;;;;;2.67;0.90;;;22.80;39.80;;;;;;6186704;28;20030;-69
2022/06/11 00:45:17;;;;;;;2.83;1.48;;;22.80;39.80;;;;;;6200399;28;20045;-69
2022/06/11 00:48:26;;;;;;;5.90;1.23;;;22.70;39.80;;;;;;6169050;28;20042;-69
2022/06/11 00:51:27;;;;;;;2.50;1.10;;;22.70;39.80;;;;;;6204064;28;20108;-69
2022/06/11 00:54:30;;;;;;;2.90;1.50;;;22.70;40.00;;;;;;6203711;28;20035;-69
2022/06/11 00:57:35;;;;;;;4.65;1.52;;;22.70;40.40;;;;;;6199835;28;20062;-69
2022/06/11 01:00:41;;;;;;;4.18;1.15;;;22.70;40.80;;;;;;6209877;28;20030;-70
2022/06/11 01:03:45;;;;;;;3.78;1.25;;;22.60;41.50;;;;;;6212083;28;20022;-69
2022/06/11 01:06:55;;;;;;;6.68;1.50;;;22.60;42.60;;;;;;6186410;28;20023;-68
2022/06/11 01:10:09;;;;;;;2.50;1.15;;;22.60;42.40;;;;;;6186238;28;20420;-69
2022/06/11 01:13:32;;;;;;;3.80;1.55;;;22.50;42.60;;;;;;6174658;28;20471;-69
2022/06/11 01:17:03;;;;;;;4.90;1.20;;;22.40;42.80;;;;;;6203531;28;20452;-69
2022/06/11 01:20:18;;;;;;;5.07;1.13;;;22.40;43.30;;;;;;6186230;28;20082;-69
2022/06/11 01:24:00;;;;;;;10.57;1.55;;;22.30;43.50;;;;;;6185997;28;20036;-68
2022/06/11 01:27:23;;;;;;;5.57;1.33;;;22.20;44.60;;;;;;6196826;28;20037;-69
2022/06/11 01:30:28;;;;;;;5.07;1.52;;;22.20;44.40;;;;;;6185936;28;20026;-69
2022/06/11 01:33:39;;;;;;;2.80;1.38;;;22.10;44.60;;;;;;6185887;28;20050;-68
2022/06/11 01:36:44;;;;;;;5.53;1.60;;;22.00;44.80;;;;;;6185330;28;20414;-68
2022/06/11 01:40:04;;;;;;;5.60;1.65;;;22.00;45.10;;;;;;6185052;28;20042;-69
2022/06/11 01:43:24;;;;;;;4.57;1.33;;;22.00;45.30;;;;;;6185699;28;20117;-69
2022/06/11 01:46:35;;;;;;;7.82;3.22;;;21.90;45.30;;;;;;6185264;28;20133;-70
2022/06/11 01:49:44;;;;;;;14.70;6.38;;;21.90;45.50;;;;;;6185527;28;20058;-69
2022/06/11 01:53:03;;;;;;;19.75;7.80;;;21.80;45.50;;;;;;6185206;28;20034;-68
2022/06/11 01:56:33;;;;;;;19.98;7.85;;;21.80;45.40;;;;;;6202306;28;20094;-69
2022/06/11 01:59:53;;;;;;;23.02;7.13;;;21.80;45.50;;;;;;6184940;28;20073;-68
2022/06/11 02:03:12;;;;;;;16.23;4.20;;;21.70;45.80;;;;;;6187953;28;20033;-68
2022/06/11 02:06:22;;;;;;;3.70;2.20;;;21.70;46.30;;;;;;6191961;28;20125;-69
2022/06/11 02:09:51;;;;;;;8.10;1.77;;;21.60;46.50;;;;;;6208047;28;20038;-69
2022/06/11 02:13:03;;;;;;;4.80;1.73;;;21.50;46.70;;;;;;6225431;28;20125;-68
2022/06/11 02:16:38;;;;;;;5.43;2.15;;;21.50;46.80;;;;;;6191543;28;20554;-68
2022/06/11 02:19:54;;;;;;;6.38;3.15;;;21.40;46.80;;;;;;6200984;28;20030;-68
2022/06/11 02:23:06;;;;;;;6.00;2.20;;;21.40;46.80;;;;;;6201735;28;20027;-68
2022/06/11 02:26:18;;;;;;;5.97;2.20;;;21.40;46.70;;;;;;6168404;28;20034;-68
2022/06/11 02:29:21;;;;;;;6.10;1.52;;;21.40;46.60;;;;;;6195379;28;20499;-68
2022/06/11 02:32:26;;;;;;;3.10;1.10;;;21.40;46.40;;;;;;6201746;28;20121;-68
2022/06/11 02:35:43;;;;;;;4.45;1.20;;;21.40;46.10;;;;;;6184460;28;20099;-68
2022/06/11 02:38:44;;;;;;;7.22;0.90;;;21.30;45.80;;;;;;6201468;28;20117;-68
2022/06/11 02:41:46;;;;;;;3.03;1.08;;;21.30;45.70;;;;;;6203158;28;20415;-68
2022/06/11 02:44:47;;;;;;;1.52;0.88;;;21.30;45.60;;;;;;6219925;28;20033;-68
2022/06/11 02:47:50;;;;;;;1.63;0.80;;;21.30;45.50;;;;;;6224765;28;20033;-68
2022/06/11 02:50:51;;;;;;;2.80;1.00;;;21.20;45.50;;;;;;6224213;28;20034;-68
2022/06/11 02:53:52;;;;;;;1.45;0.93;;;21.20;45.60;;;;;;6204107;28;20049;-68
2022/06/11 02:56:56;;;;;;;2.67;1.00;;;21.20;45.60;;;;;;6217180;28;20045;-69
2022/06/11 02:59:57;;;;;;;3.60;1.00;;;21.10;45.50;;;;;;6205193;28;20041;-68
2022/06/11 03:02:59;;;;;;;3.30;1.50;;;21.10;45.60;;;;;;6183877;28;20464;-68
2022/06/11 03:06:00;;;;;;;2.25;1.13;;;21.10;45.80;;;;;;6189528;28;20030;-68
2022/06/11 03:09:01;;;;;;;2.20;1.38;;;21.10;46.10;;;;;;6167144;28;20368;-68
2022/06/11 03:12:04;;;;;;;3.47;1.13;;;21.10;46.50;;;;;;6183694;28;20522;-68
2022/06/11 03:15:05;;;;;;;0.95;0.88;;;21.00;46.70;;;;;;6200754;28;20064;-68
2022/06/11 03:18:06;;;;;;;2.03;1.08;;;21.00;46.50;;;;;;6201582;28;20038;-68
2022/06/11 03:21:07;;;;;;;8.52;1.50;;;20.90;46.30;;;;;;6203810;28;20026;-68
2022/06/11 03:24:08;;;;;;;4.50;1.00;;;20.90;46.40;;;;;;6185281;28;20045;-68
2022/06/11 03:27:10;;;;;;;4.20;1.63;;;20.80;46.50;;;;;;6200833;28;20373;-68
2022/06/11 03:30:13;;;;;;;1.42;1.05;;;20.80;46.70;;;;;;6167129;28;20475;-68
2022/06/11 03:33:14;;;;;;;1.35;1.13;;;20.80;46.80;;;;;;6200463;28;20032;-68
2022/06/11 03:36:17;;;;;;;2.15;1.38;;;20.70;46.80;;;;;;6200759;28;20034;-68
2022/06/11 03:39:18;;;;;;;3.50;1.58;;;20.60;46.80;;;;;;6183126;28;20375;-68
2022/06/11 03:42:19;;;;;;;3.85;1.27;;;20.60;46.90;;;;;;6166985;28;20062;-69
2022/06/11 03:45:21;;;;;;;4.13;1.42;;;20.60;46.90;;;;;;6183351;28;20371;-68
2022/06/11 03:48:22;;;;;;;6.30;1.88;;;20.50;47.00;;;;;;6200382;28;20380;-68
2022/06/11 03:51:23;;;;;;;3.65;1.45;;;20.50;47.30;;;;;;6183309;28;20034;-68
2022/06/11 03:54:24;;;;;;;2.53;1.75;;;20.50;47.50;;;;;;6201050;28;20403;-68
2022/06/11 03:57:25;;;;;;;3.67;1.88;;;20.50;47.80;;;;;;6182868;28;20038;-68
2022/06/11 04:03:56;;;;;;;3.08;1.67;;;20.40;48.30;;;;;;6202732;28;20036;-68
2022/06/11 04:06:59;;;;;;;6.53;1.40;;;20.40;48.50;;;;;;6188138;28;20092;-69
2022/06/11 04:10:00;;;;;;;1.75;1.40;;;20.40;48.70;;;;;;6210900;28;20022;-68
2022/06/11 04:13:01;;;;;;;5.28;1.33;;;20.40;48.60;;;;;;6204603;28;20466;-68
2022/06/11 04:16:04;;;;;;;3.13;1.20;;;20.30;48.70;;;;;;6187728;28;20034;-68
2022/06/11 04:19:08;;;;;;;4.03;1.35;;;20.30;48.90;;;;;;6204693;28;20380;-68
2022/06/11 04:22:09;;;;;;;2.30;1.38;;;20.30;49.20;;;;;;6181511;28;20030;-69
2022/06/11 04:25:13;;;;;;;1.95;1.30;;;20.30;49.40;;;;;;6187297;28;20419;-69
2022/06/11 04:28:14;;;;;;;4.68;1.73;;;20.20;49.50;;;;;;6171047;28;20034;-69
2022/06/11 04:31:16;;;;;;;5.03;1.45;;;20.20;49.60;;;;;;6203869;28;20030;-69
2022/06/11 04:34:17;;;;;;;2.35;1.40;;;20.20;49.80;;;;;;6186733;28;20112;-69
2022/06/11 04:37:22;;;;;;;5.50;1.70;;;20.20;49.90;;;;;;6204383;28;20042;-69
2022/06/11 04:40:23;;;;;;;3.25;1.40;;;20.20;50.00;;;;;;6203809;28;20440;-69
2022/06/11 04:43:23;;;;;;;2.55;1.67;;;20.20;50.00;;;;;;6180421;28;20030;-69
2022/06/11 04:46:25;;;;;;;3.80;1.35;;;20.20;50.00;;;;;;6187225;28;20431;-69
2022/06/11 04:49:27;;;;;;;8.52;1.60;;;20.30;50.60;;;;;;6206814;28;20026;-69
2022/06/11 04:52:28;;;;;;;4.18;1.42;;;20.30;50.00;;;;;;6199522;28;20026;-69
2022/06/11 04:55:29;;;;;;;2.53;1.50;;;20.30;49.90;;;;;;6204650;28;20460;-69
2022/06/11 04:58:30;;;;;;;3.33;1.73;;;20.30;49.80;;;;;;6203977;28;20092;-69
2022/06/11 05:01:31;;;;;;;4.13;1.63;;;20.40;49.80;;;;;;6203709;28;20026;-69
2022/06/11 05:04:32;;;;;;;2.63;1.65;;;20.40;49.70;;;;;;6170596;28;20104;-68
2022/06/11 05:07:34;;;;;;;10.75;1.88;;;20.40;49.70;;;;;;6171777;28;20036;-68
2022/06/11 05:10:35;;;;;;;3.13;1.50;;;20.40;49.70;;;;;;6192176;28;20166;-68
2022/06/11 05:13:36;;;;;;;4.88;1.58;;;20.50;49.80;;;;;;6202930;28;20046;-68
2022/06/11 05:16:41;;;;;;;2.55;1.50;;;20.50;49.80;;;;;;6203662;28;20356;-68
2022/06/11 05:19:43;;;;;;;5.20;2.05;;;20.50;50.00;;;;;;6203492;28;20053;-68
2022/06/11 05:22:45;;;;;;;7.50;1.63;;;20.50;50.00;;;;;;6169780;28;20062;-68
2022/06/11 05:25:46;;;;;;;4.80;2.00;;;20.50;49.90;;;;;;6185352;28;20045;-68
2022/06/11 05:28:48;;;;;;;2.72;1.52;;;20.60;49.80;;;;;;6203282;28;20031;-68
2022/06/11 05:31:49;;;;;;;2.30;1.50;;;20.60;49.60;;;;;;6185833;28;20512;-68
2022/06/11 05:34:51;;;;;;;4.25;1.63;;;20.70;49.40;;;;;;6203066;28;20166;-69
2022/06/11 05:37:55;;;;;;;2.63;1.50;;;20.70;49.00;;;;;;6202801;28;20038;-69
2022/06/11 05:40:56;;;;;;;3.47;1.40;;;20.70;48.80;;;;;;6202610;28;20022;-69
2022/06/11 05:43:57;;;;;;;4.47;1.40;;;20.70;48.60;;;;;;6202603;28;20062;-69
2022/06/11 05:46:58;;;;;;;2.95;1.40;;;20.80;48.40;;;;;;6185351;28;20056;-69
2022/06/11 05:50:00;;;;;;;2.80;1.38;;;20.80;48.30;;;;;;6201481;28;20121;-69
2022/06/11 05:53:03;;;;;;;1.38;1.10;;;20.80;48.20;;;;;;6169041;28;20034;-69
2022/06/11 05:56:06;;;;;;;7.20;1.45;;;20.90;48.20;;;;;;6185074;28;20353;-69
2022/06/11 05:59:20;;;;;;;3.70;1.27;;;20.90;48.20;;;;;;6202492;28;20045;-69
2022/06/11 06:02:23;;;;;;;1.67;1.25;;;20.90;48.10;;;;;;6185118;28;20115;-69
2022/06/11 06:05:26;;;;;;;2.97;1.40;;;21.00;48.10;;;;;;6185202;28;20035;-69
2022/06/11 06:08:27;;;;;;;3.60;1.50;;;21.00;48.00;;;;;;6184615;28;20038;-69
2022/06/11 06:11:28;;;;;;;9.15;1.85;;;21.10;47.90;;;;;;6184574;28;20034;-69
2022/06/11 06:14:29;;;;;;;2.67;1.10;;;21.20;47.90;;;;;;6187637;28;20431;-69
2022/06/11 06:17:30;;;;;;;5.03;1.77;;;21.20;47.80;;;;;;6195442;28;20030;-69
2022/06/11 06:20:31;;;;;;;4.63;1.73;;;21.20;47.80;;;;;;6184645;28;20045;-69
2022/06/11 06:23:33;;;;;;;2.00;1.30;;;21.20;47.80;;;;;;6167274;28;20035;-69
2022/06/11 06:26:34;;;;;;;1.75;1.17;;;21.30;47.90;;;;;;6179955;28;20060;-69
2022/06/11 06:29:35;;;;;;;4.53;1.55;;;21.30;47.90;;;;;;6210041;28;20061;-69
2022/06/11 06:32:36;;;;;;;2.10;1.17;;;21.40;47.90;;;;;;6208933;28;20070;-69
2022/06/11 06:35:37;;;;;;;7.65;1.50;;;21.40;47.80;;;;;;6201124;28;20058;-69
2022/06/11 06:38:38;;;;;;;3.88;1.45;;;21.50;47.70;;;;;;6183473;28;20053;-69
2022/06/11 06:41:39;;;;;;;3.70;1.30;;;21.70;47.50;;;;;;6182884;28;20034;-69
2022/06/11 06:44:40;;;;;;;5.82;1.40;;;21.80;47.30;;;;;;6208054;28;20061;-69
2022/06/11 06:47:42;;;;;;;4.95;1.10;;;22.00;47.00;;;;;;6209329;28;20113;-68
2022/06/11 06:50:43;;;;;;;3.72;1.15;;;22.20;46.80;;;;;;6185961;28;20042;-68
2022/06/11 06:53:44;;;;;;;3.97;1.20;;;22.30;46.60;;;;;;6183687;28;20045;-70
2022/06/11 06:56:45;;;;;;;1.50;1.02;;;22.50;46.30;;;;;;6171397;28;20395;-69
2022/06/11 06:59:46;;;;;;;2.55;1.40;;;22.60;46.00;;;;;;6174415;28;20035;-69
2022/06/11 07:02:47;;;;;;;2.67;1.17;;;22.70;45.70;;;;;;6200565;28;20018;-69
2022/06/11 07:05:49;;;;;;;4.63;1.55;;;22.90;45.40;;;;;;6177313;28;20089;-69
2022/06/11 07:08:51;;;;;;;3.42;1.40;;;23.10;45.10;;;;;;6166922;28;20069;-68
2022/06/11 07:11:52;;;;;;;1.20;1.05;;;23.50;44.30;;;;;;6200472;28;20026;-68
2022/06/11 07:14:53;;;;;;;2.53;1.10;;;24.00;43.40;;;;;;6183182;28;20069;-68
2022/06/11 07:18:14;;;;;;;2.70;1.40;;;24.30;42.70;;;;;;6183354;28;20034;-69
2022/06/11 07:21:25;;;;;;;3.03;1.60;;;24.40;42.30;;;;;;6209439;28;20050;-71
2022/06/11 07:24:29;;;;;;;5.88;1.52;;;24.40;42.30;;;;;;6221292;28;20547;-69
2022/06/11 07:27:37;;;;;;;3.58;1.50;;;24.30;42.30;;;;;;6206503;28;20535;-68
2022/06/11 07:30:39;;;;;;;;;;;24.30;42.30;;;;;;6206854;28;20052;-69
2022/06/11 07:33:43;;;;;;;5.80;1.75;;;24.30;42.30;;;;;;6183044;28;19910;-69
2022/06/11 07:36:44;;;;;;;3.95;1.20;;;24.20;42.10;;;;;;6200217;28;20093;-70
2022/06/11 07:39:45;;;;;;;3.30;1.30;;;24.30;42.20;;;;;;6182738;28;20034;-69
2022/06/11 07:42:46;;;;;;;5.00;1.30;;;24.30;42.10;;;;;;6199616;28;20429;-68
2022/06/11 07:45:48;;;;;;;2.30;1.10;;;24.40;41.80;;;;;;6182151;28;20050;-69
2022/06/11 07:48:49;;;;;;;3.05;1.00;;;24.50;41.50;;;;;;6196596;28;20033;-69
2022/06/11 07:51:51;;;;;;;3.60;1.20;;;24.50;41.40;;;;;;6217891;28;20419;-69
2022/06/11 07:54:52;;;;;;;7.32;1.88;;;24.50;41.40;;;;;;6205473;28;20037;-69
2022/06/11 07:57:55;;;;;;;5.78;1.83;;;24.60;41.30;;;;;;6222110;28;20506;-69
2022/06/11 08:00:57;;;;;;;3.47;1.40;;;24.80;41.30;;;;;;6219736;28;20026;-69
2022/06/11 08:03:57;;;;;;;1.67;1.25;;;24.80;41.00;;;;;;6182078;28;20396;-70
2022/06/11 08:06:58;;;;;;;2.25;1.25;;;24.90;40.90;;;;;;6182488;28;20026;-69
2022/06/11 08:10:00;;;;;;;2.92;1.17;;;25.00;40.70;;;;;;6181973;28;20360;-69
2022/06/11 08:13:02;;;;;;;1.60;1.40;;;25.00;40.70;;;;;;6181779;28;20359;-69
2022/06/11 08:16:03;;;;;;;2.10;1.30;;;25.10;40.70;;;;;;6199496;28;20034;-70
2022/06/11 08:19:04;;;;;;;3.85;1.33;;;25.20;40.40;;;;;;6199199;28;20046;-68
2022/06/11 08:22:05;;;;;;;1.27;1.08;;;25.40;39.90;;;;;;6184690;28;20052;-69
2022/06/11 08:25:06;;;;;;;2.58;1.40;;;25.50;39.70;;;;;;6222421;28;20037;-69
2022/06/11 08:28:11;;;;;;;5.20;1.27;;;25.60;39.60;;;;;;6205005;28;20046;-69
2022/06/11 08:31:12;;;;;;;2.25;1.33;;;25.80;39.60;;;;;;6217113;28;20116;-69
2022/06/11 08:34:13;;;;;;;3.70;1.30;;;25.90;39.00;;;;;;6181820;28;20050;-69
2022/06/11 08:37:15;;;;;;;2.72;1.20;;;26.00;38.40;;;;;;6181542;28;20124;-69
2022/06/11 08:40:55;;;;;;;5.32;1.10;;;26.10;38.40;;;;;;6198904;28;20081;-70
2022/06/11 08:43:58;;;;;;;;;;;26.20;38.30;;;;;;6148790;28;20064;-69
2022/06/11 08:47:03;;;;;;;2.20;1.05;;;26.30;38.10;;;;;;6148746;28;19910;-69
2022/06/11 08:50:10;;;;;;;3.58;1.40;;;26.40;37.90;;;;;;6152279;29;20094;-69
2022/06/11 08:53:11;;;;;;;3.00;1.40;;;26.40;37.50;;;;;;6135665;29;20385;-69
2022/06/11 08:56:22;;;;;;;2.10;1.23;;;26.50;37.50;;;;;;6135818;29;20552;-69
2022/06/11 08:59:59;;;;;;;1.50;1.10;;;26.50;37.40;;;;;;6132476;29;20051;-69
2022/06/11 09:03:21;;;;;;;4.82;1.10;;;26.50;37.60;;;;;;6136457;29;20397;-69
2022/06/11 09:06:30;;;;;;;4.35;2.00;;;26.60;37.50;;;;;;6120397;29;20055;-69
2022/06/11 09:10:16;;;;;;;2.25;1.38;;;26.70;37.20;;;;;;6152301;29;20043;-69
2022/06/11 09:13:55;;;;;;;3.30;1.50;;;26.70;37.10;;;;;;6129300;29;20061;-69
2022/06/11 09:17:15;;;;;;;3.17;1.47;;;26.80;36.80;;;;;;6131242;29;20051;-69
2022/06/11 09:20:47;;;;;;;3.35;1.30;;;26.90;36.70;;;;;;6129843;29;20132;-69
2022/06/11 09:24:11;;;;;;;5.93;1.23;;;26.90;36.50;;;;;;6149046;28;20043;-69
2022/06/11 09:27:37;;;;;;;5.82;1.30;;;27.00;36.50;;;;;;6151216;29;20102;-70
2022/06/11 09:30:46;;;;;;;2.85;1.63;;;27.00;36.50;;;;;;6128309;29;20122;-70
2022/06/11 09:33:53;;;;;;;2.30;1.20;;;27.10;36.30;;;;;;6151783;28;20034;-69
2022/06/11 09:37:00;;;;;;;4.43;1.30;;;27.20;36.10;;;;;;6135469;29;20125;-70
2022/06/11 09:40:19;;;;;;;4.30;1.30;;;27.40;36.00;;;;;;6119267;29;20090;-69
2022/06/11 09:43:34;;;;;;;2.17;1.13;;;27.50;35.70;;;;;;6132738;28;20078;-69
2022/06/11 09:46:43;;;;;;;3.20;1.15;;;27.50;35.40;;;;;;6174747;28;20199;-69
2022/06/11 09:50:04;;;;;;;2.33;1.30;;;27.50;35.20;;;;;;6196981;28;20463;-69
2022/06/11 09:53:19;;;;;;;1.98;0.95;;;27.50;35.10;;;;;;6217326;28;20045;-69
2022/06/11 09:56:45;;;;;;;5.22;1.15;;;27.60;34.90;;;;;;6224623;28;20451;-69
2022/06/11 09:59:59;;;;;;;2.63;1.17;;;27.70;34.80;;;;;;6224658;28;20045;-69
2022/06/11 10:06:29;;;;;;;12.20;1.13;;;28.00;34.50;;;;;;6201793;28;20033;-69
2022/06/11 10:09:30;;;;;;;2.58;1.20;;;28.10;34.30;;;;;;6201300;28;20486;-69
2022/06/11 10:12:36;;;;;;;1.98;1.08;;;28.20;34.00;;;;;;6203119;28;20022;-70
2022/06/11 10:15:39;;;;;;;3.33;1.25;;;28.20;33.90;;;;;;6224402;28;20108;-70
2022/06/11 10:18:41;;;;;;;4.35;1.33;;;28.20;33.80;;;;;;6199184;28;20080;-71
2022/06/11 10:21:51;;;;;;;3.75;1.00;;;28.20;33.80;;;;;;6202603;28;20085;-71
2022/06/11 10:25:00;;;;;;;1.55;1.02;;;28.30;33.70;;;;;;6183510;28;20420;-71
2022/06/11 10:28:22;;;;;;;1.00;0.90;;;28.30;33.50;;;;;;6167290;28;20030;-70
2022/06/11 10:31:29;;;;;;;1.75;1.08;;;28.40;33.40;;;;;;6201075;28;20038;-72
2022/06/11 10:34:31;;;;;;;3.63;0.88;;;28.40;33.30;;;;;;6193964;28;20027;-69
2022/06/11 10:37:51;;;;;;;2.55;1.20;;;28.40;33.30;;;;;;6184045;28;20408;-70
2022/06/11 10:40:54;;;;;;;3.58;1.15;;;28.40;33.20;;;;;;6183738;28;20034;-70
2022/06/11 10:44:09;;;;;;;1.90;1.00;;;28.50;33.30;;;;;;6200469;28;20057;-69
2022/06/11 10:47:32;;;;;;;2.80;0.90;;;28.60;33.20;;;;;;6170163;28;20415;-71
2022/06/11 10:50:35;;;;;;;2.55;1.05;;;28.60;33.10;;;;;;6183562;28;20022;-70
2022/06/11 10:53:41;;;;;;;3.42;1.50;;;28.80;33.10;;;;;;6214198;28;20519;-69
2022/06/11 10:56:49;;;;;;;3.22;1.23;;;28.90;32.90;;;;;;6199251;28;20026;-71
2022/06/11 11:00:17;;;;;;;2.40;0.90;;;29.00;32.80;;;;;;6206371;28;20148;-70
2022/06/11 11:03:23;;;;;;;6.78;1.13;;;29.10;32.70;;;;;;6159648;28;20475;-70
2022/06/11 11:06:34;;;;;;;3.45;1.23;;;29.60;32.20;;;;;;6200394;28;20049;-70
2022/06/11 11:09:35;;;;;;;2.58;1.20;;;30.90;30.90;;;;;;6210098;28;20034;-71
2022/06/11 11:12:37;;;;;;;2.15;1.30;;;32.20;29.60;;;;;;6189823;28;20026;-70
2022/06/11 11:15:44;;;;;;;8.10;1.27;;;33.30;28.60;;;;;;6205977;28;20077;-70
2022/06/11 11:19:19;;;;;;;1.55;0.82;;;34.00;27.50;;;;;;6205775;28;20034;-69
2022/06/11 11:22:20;;;;;;;4.70;1.40;;;34.60;27.10;;;;;;6214510;28;20027;-70
2022/06/11 11:25:29;;;;;;;2.33;1.25;;;35.10;26.60;;;;;;6182785;28;20441;-70
2022/06/11 11:28:43;;;;;;;1.42;0.95;;;35.70;26.30;;;;;;6182396;28;20058;-70
2022/06/11 11:31:43;;;;;;;4.38;1.08;;;36.20;25.90;;;;;;6200994;28;20548;-70
2022/06/11 11:34:48;;;;;;;2.47;1.05;;;36.50;25.40;;;;;;6182923;28;20019;-69
2022/06/11 11:38:11;;;;;;;2.60;1.15;;;36.70;25.30;;;;;;6182750;28;20042;-70
2022/06/11 11:41:25;;;;;;;3.60;1.10;;;37.00;25.10;;;;;;6166530;28;20113;-70
2022/06/11 11:44:25;;;;;;;5.95;1.25;;;37.30;24.70;;;;;;6199462;28;20452;-70
2022/06/11 11:47:37;;;;;;;4.80;1.48;;;37.60;24.50;;;;;;6182716;28;20089;-69
2022/06/11 11:50:41;;;;;;;1.55;0.95;;;38.00;24.10;;;;;;6194182;28;20177;-70
2022/06/11 11:53:47;;;;;;;2.35;0.90;;;38.30;24.00;;;;;;6199637;28;20113;-71
2022/06/11 11:56:53;;;;;;;1.67;0.95;;;38.40;23.70;;;;;;6182181;28;20519;-71
2022/06/11 12:00:05;;;;;;;2.37;0.87;;;38.60;23.70;;;;;;6199377;28;20027;-70
2022/06/11 12:03:23;;;;;;;1.63;0.77;;;38.80;23.40;;;;;;6199529;28;20583;-70
2022/06/11 12:06:55;;;;;;;1.02;0.85;;;38.90;23.10;;;;;;6182267;28;20113;-70
2022/06/11 12:10:21;;;;;;;2.35;0.65;;;38.90;23.40;;;;;;6119237;28;20059;-71
2022/06/11 12:13:26;;;;;;;1.60;0.85;;;39.00;22.80;;;;;;6148561;29;20465;-70
2022/06/11 12:16:42;;;;;;;0.93;0.73;;;39.20;22.70;;;;;;6148352;29;20098;-70
2022/06/11 12:19:48;;;;;;;4.97;1.10;;;39.30;22.30;;;;;;6148289;29;20040;-70
2022/06/11 12:23:14;;;;;;;1.70;1.00;;;39.30;22.20;;;;;;6138896;29;20046;-69
2022/06/11 12:26:23;;;;;;;2.13;0.80;;;39.10;22.20;;;;;;6063152;29;20056;-70
2022/06/11 12:29:48;;;;;;;0.82;0.75;;;39.10;22.10;;;;;;6074996;29;20036;-70
2022/06/11 12:32:49;;;;;;;1.73;1.00;;;39.00;22.00;;;;;;6082019;29;20067;-69
2022/06/11 12:36:11;;;;;;;3.50;0.95;;;39.00;22.00;;;;;;6080912;29;20036;-71
2022/06/11 12:39:24;;;;;;;2.20;1.00;;;39.20;22.40;;;;;;6085649;29;20451;-72
2022/06/11 12:42:24;;;;;;;1.17;0.95;;;39.40;21.70;;;;;;6081707;29;20048;-70
2022/06/11 12:46:03;;;;;;;1.10;1.00;;;39.80;21.60;;;;;;6089004;29;20143;-71
2022/06/11 12:49:33;;;;;;;2.47;0.90;;;40.00;21.20;;;;;;6105518;29;20040;-71
2022/06/11 12:52:58;;;;;;;1.65;0.70;;;40.30;20.90;;;;;;6103758;29;20048;-72
2022/06/11 12:56:17;;;;;;;2.85;1.17;;;40.30;20.90;;;;;;6089781;29;20080;-71
2022/06/11 12:59:26;;;;;;;1.20;0.85;;;40.50;20.70;;;;;;6118657;29;20122;-71
2022/06/11 13:02:51;;;;;;;1.95;0.88;;;40.80;20.40;;;;;;6155797;28;20061;-71
2022/06/11 13:06:04;;;;;;;2.67;1.05;;;41.20;20.30;;;;;;6209066;28;20034;-71
2022/06/11 13:09:30;;;;;;;1.95;1.08;;;41.60;19.90;;;;;;6208666;28;20352;-71
2022/06/11 13:12:56;;;;;;;1.73;0.70;;;41.90;19.50;;;;;;6195451;28;20060;-71
2022/06/11 13:16:04;;;;;;;3.10;1.00;;;42.30;19.30;;;;;;6157007;28;20070;-71
2022/06/11 13:19:47;;;;;;;4.25;0.93;;;43.00;18.80;;;;;;6178521;28;20038;-70
2022/06/11 13:22:59;;;;;;;2.33;0.65;;;43.60;18.50;;;;;;6103607;29;20107;-71
2022/06/11 13:26:09;;;;;;;1.27;0.70;;;44.20;18.20;;;;;;6112247;29;20054;-71
2022/06/11 13:29:25;;;;;;;0.73;0.73;;;44.80;17.60;;;;;;6111828;29;20345;-70
2022/06/11 13:32:48;;;;;;;1.80;0.82;;;45.00;17.40;;;;;;6127448;29;20135;-69
2022/06/11 13:36:01;;;;;;;1.17;0.70;;;45.50;17.10;;;;;;6122083;29;20051;-70
2022/06/11 13:39:29;;;;;;;2.88;1.55;;;45.90;16.70;;;;;;6125293;29;20469;-71
2022/06/11 13:42:39;;;;;;;2.10;1.25;;;46.20;16.60;;;;;;6127869;29;20032;-71
2022/06/11 13:46:24;;;;;;;1.33;0.80;;;46.70;16.20;;;;;;6082745;29;20454;-71
2022/06/11 13:49:43;;;;;;;1.08;0.75;;;47.30;16.00;;;;;;6103069;29;20449;-71
2022/06/11 13:56:29;;;;;;;0.95;0.80;;;47.70;15.50;;;;;;6127750;29;20074;-71
2022/06/11 13:59:55;;;;;;;1.25;0.80;;;48.10;15.20;;;;;;6150346;28;20046;-72
2022/06/11 14:02:59;;;;;;;1.98;0.98;;;48.40;15.00;;;;;;6200679;28;20038;-70
2022/06/11 14:06:03;;;;;;;7.05;0.60;;;48.20;15.00;;;;;;6183221;28;20483;-70
2022/06/11 14:12:49;;;;;;;2.05;1.00;;;48.20;14.80;;;;;;6167412;28;20043;-70
2022/06/11 14:15:51;;;;;;;0.73;0.60;;;48.40;14.80;;;;;;6182466;28;20149;-70
2022/06/11 14:18:52;;;;;;;4.32;0.85;;;48.80;14.70;;;;;;6184036;28;20523;-70
2022/06/11 14:21:56;;;;;;;1.35;0.70;;;48.70;14.40;;;;;;6201082;28;20023;-70
2022/06/11 14:24:59;;;;;;;1.55;0.75;;;48.50;14.50;;;;;;6200532;28;20038;-71
2022/06/11 14:28:18;;;;;;;0.88;0.70;;;48.40;14.60;;;;;;6183095;28;20034;-70
2022/06/11 14:31:19;;;;;;;0.88;0.70;;;48.50;14.50;;;;;;6183434;28;20049;-70
2022/06/11 14:34:35;;;;;;;0.80;0.52;;;48.10;14.50;;;;;;6200317;28;20026;-70
2022/06/11 14:37:36;;;;;;;3.75;0.93;;;48.00;14.60;;;;;;6175130;28;20030;-71
2022/06/11 14:40:37;;;;;;;2.30;0.80;;;47.90;14.50;;;;;;6182152;28;20341;-71
2022/06/11 14:43:57;;;;;;;0.93;0.80;;;47.70;14.60;;;;;;6201299;28;20129;-71
2022/06/11 14:47:00;;;;;;;6.45;0.80;;;47.30;14.70;;;;;;6182463;28;20440;-71
2022/06/11 14:50:00;;;;;;;1.30;0.60;;;47.30;14.80;;;;;;6200885;28;20035;-71
2022/06/11 14:53:13;;;;;;;1.05;0.73;;;47.40;14.60;;;;;;6200620;28;20080;-71
2022/06/11 14:56:13;;;;;;;1.27;0.57;;;47.40;14.60;;;;;;6200484;28;20174;-71
2022/06/11 14:59:26;;;;;;;0.98;0.70;;;47.40;14.50;;;;;;6184130;28;20155;-71
2022/06/11 15:02:39;;;;;;;2.25;0.70;;;47.40;14.50;;;;;;6183291;28;20061;-70
2022/06/11 15:06:00;;;;;;;1.45;0.60;;;47.10;14.60;;;;;;6166535;28;20067;-70
2022/06/11 15:09:23;;;;;;;1.23;0.50;;;47.00;14.50;;;;;;6204129;28;20057;-70
2022/06/11 15:13:01;;;;;;;1.45;0.70;;;46.40;14.70;;;;;;6182892;28;20056;-69
2022/06/11 15:16:24;;;;;;;1.70;0.60;;;45.90;15.00;;;;;;6182956;28;20108;-70
2022/06/11 15:19:31;;;;;;;1.25;0.70;;;45.70;15.10;;;;;;6182873;28;20038;-71
2022/06/11 15:22:41;;;;;;;2.30;0.70;;;45.50;15.20;;;;;;6175509;28;20081;-70
2022/06/11 15:25:44;;;;;;;2.10;0.68;;;45.50;15.20;;;;;;6182457;28;20034;-70
2022/06/11 15:29:09;;;;;;;1.90;0.82;;;45.70;15.10;;;;;;6182758;28;20456;-71
2022/06/11 15:32:16;;;;;;;5.53;0.85;;;45.70;15.00;;;;;;6177222;28;20029;-71
2022/06/11 15:35:37;;;;;;;;;;;45.50;15.10;;;;;;6161979;28;20042;-71
2022/06/11 15:38:52;;;;;;;1.23;0.70;;;45.50;15.10;;;;;;6165583;28;19932;-71
2022/06/11 15:42:00;;;;;;;1.58;0.68;;;45.30;15.10;;;;;;6193340;28;20032;-70
2022/06/11 15:45:04;;;;;;;1.75;0.70;;;45.20;15.30;;;;;;6191304;28;20026;-71
2022/06/11 15:48:17;;;;;;;1.27;0.60;;;45.10;15.30;;;;;;6176641;28;20428;-71
2022/06/11 15:51:21;;;;;;;1.88;0.80;;;45.30;15.20;;;;;;6191711;28;20022;-71
2022/06/11 15:58:09;;;;;;;7.00;1.00;;;45.90;15.10;;;;;;6175779;28;20380;-71
2022/06/11 16:01:17;;;;;;;4.95;0.80;;;45.70;15.00;;;;;;6153332;29;20475;-71
2022/06/11 16:04:22;;;;;;;1.60;0.70;;;45.30;15.00;;;;;;6111147;29;20027;-71
2022/06/11 16:07:26;;;;;;;3.78;0.80;;;44.90;15.30;;;;;;6154630;28;20111;-71
2022/06/11 16:10:32;;;;;;;2.75;0.70;;;44.30;15.60;;;;;;6135830;29;20036;-71
2022/06/11 16:13:35;;;;;;;0.50;0.50;;;43.90;15.80;;;;;;6152086;29;20051;-70
2022/06/11 16:16:46;;;;;;;0.73;0.63;;;43.70;16.00;;;;;;6149117;29;20130;-71
2022/06/11 16:19:52;;;;;;;0.60;0.60;;;43.50;16.20;;;;;;6152080;29;20109;-71
2022/06/11 16:22:56;;;;;;;1.33;0.80;;;43.40;16.20;;;;;;6152302;28;20045;-71
2022/06/11 16:25:58;;;;;;;3.42;0.80;;;43.30;16.30;;;;;;6133053;29;20132;-70
2022/06/11 16:29:00;;;;;;;1.23;0.60;;;43.20;16.40;;;;;;6134687;29;20050;-70
2022/06/11 16:32:02;;;;;;;8.13;0.82;;;43.00;16.40;;;;;;6151865;29;20489;-71
2022/06/11 16:35:05;;;;;;;1.63;0.45;;;42.90;16.60;;;;;;6151667;29;20103;-70
2022/06/11 16:38:38;;;;;;;2.80;1.25;;;43.10;16.60;;;;;;6178864;28;20039;-71
2022/06/11 16:45:22;;;;;;;2.08;0.85;;;44.00;16.30;;;;;;6058390;29;20068;-71